createdAt,value
2016-12-14T00:00:09.143Z,6.13
2016-12-14T00:03:03.359Z,6.14
2016-12-14T00:05:58.724Z,6.15
2016-12-14T00:08:51.984Z,6.15
2016-12-14T00:11:46.336Z,6.17
2016-12-14T00:14:40.581Z,6.16
2016-12-14T00:23:23.440Z,6.19
2016-12-14T00:26:17.758Z,6.20
2016-12-14T00:29:12.086Z,6.21
2016-12-14T00:35:00.614Z,6.23
2016-12-14T00:37:54.743Z,6.24
2016-12-14T00:40:48.990Z,6.25
2016-12-14T00:43:43.122Z,6.26
2016-12-14T00:46:37.393Z,6.25
2016-12-14T00:49:31.627Z,6.25
2016-12-14T00:52:25.790Z,6.26
2016-12-14T00:55:19.994Z,6.26
2016-12-14T00:58:14.300Z,6.27
2016-12-14T01:04:02.772Z,6.27
2016-12-14T01:06:57.038Z,6.27
2016-12-14T01:12:45.550Z,6.27
2016-12-14T01:15:39.675Z,6.28
2016-12-14T01:18:33.908Z,6.28
2016-12-14T01:21:28.170Z,6.27
2016-12-14T01:30:10.815Z,6.25
2016-12-14T01:33:04.954Z,6.24
2016-12-14T01:35:59.093Z,6.23
2016-12-14T01:38:53.185Z,6.23
2016-12-14T01:41:47.276Z,6.24
2016-12-14T01:44:41.419Z,6.26
2016-12-14T01:47:35.664Z,6.27
2016-12-14T01:50:29.881Z,6.28
2016-12-14T01:53:24.097Z,6.29
2016-12-14T01:56:18.202Z,6.30
2016-12-14T01:59:12.498Z,6.30
2016-12-14T02:02:06.564Z,6.30
2016-12-14T02:05:00.746Z,6.30
2016-12-14T02:07:54.962Z,6.31
2016-12-14T02:10:49.105Z,6.33
2016-12-14T02:16:37.498Z,6.33
2016-12-14T02:19:31.642Z,6.34
2016-12-14T02:22:25.792Z,6.35
2016-12-14T02:25:19.931Z,6.36
2016-12-14T02:34:02.272Z,6.37
2016-12-14T02:42:44.732Z,6.41
2016-12-14T02:45:38.882Z,6.41
2016-12-14T02:48:33.103Z,6.41
2016-12-14T03:03:03.876Z,6.44
2016-12-14T03:05:58.082Z,6.45
2016-12-14T03:08:52.217Z,6.45
2016-12-14T03:11:46.402Z,6.46
2016-12-14T03:20:29.013Z,6.46
2016-12-14T03:26:17.308Z,6.48
2016-12-14T03:29:12.021Z,6.49
2016-12-14T03:32:06.084Z,6.49
2016-12-14T03:35:00.144Z,6.50
2016-12-14T03:37:54.286Z,6.50
2016-12-14T03:40:48.325Z,6.50
2016-12-14T03:46:36.568Z,6.52
2016-12-14T03:49:30.779Z,6.54
2016-12-14T03:52:24.850Z,6.55
2016-12-14T03:55:18.872Z,6.57
2016-12-14T03:58:13.103Z,6.58
2016-12-14T04:01:07.286Z,6.58
2016-12-14T04:04:01.357Z,6.59
2016-12-14T04:09:49.736Z,6.62
2016-12-14T04:12:43.908Z,6.63
2016-12-14T04:15:38.117Z,6.65
2016-12-14T04:21:26.322Z,6.67
2016-12-14T04:24:20.467Z,6.68
2016-12-14T04:27:14.622Z,6.69
2016-12-14T04:30:08.877Z,6.69
2016-12-14T04:33:03.067Z,6.72
2016-12-14T04:35:58.221Z,6.73
2016-12-14T04:38:51.411Z,6.73
2016-12-14T04:41:45.554Z,6.72
2016-12-14T04:44:39.645Z,6.73
2016-12-14T04:47:33.992Z,6.74
2016-12-14T04:50:28.221Z,6.74
2016-12-14T04:56:16.773Z,6.76
2016-12-14T04:59:11.394Z,6.76
2016-12-14T05:02:05.619Z,6.76
2016-12-14T05:04:59.831Z,6.77
2016-12-14T05:10:48.504Z,6.77
2016-12-14T05:13:42.627Z,6.76
2016-12-14T05:16:36.738Z,6.76
2016-12-14T05:19:30.899Z,6.77
2016-12-14T05:25:19.932Z,6.76
2016-12-14T05:28:13.950Z,6.77
2016-12-14T05:31:08.220Z,6.77
2016-12-14T05:34:02.277Z,6.77
2016-12-14T05:36:56.384Z,6.78
2016-12-14T05:39:50.448Z,6.78
2016-12-14T05:42:44.587Z,6.78
2016-12-14T05:45:38.789Z,6.79
2016-12-14T05:48:33.108Z,6.79
2016-12-14T05:51:27.291Z,6.79
2016-12-14T05:54:21.478Z,6.79
2016-12-14T05:57:15.671Z,6.78
2016-12-14T06:00:09.870Z,6.78
2016-12-14T06:03:04.025Z,6.79
2016-12-14T06:05:58.281Z,6.79
2016-12-14T06:08:52.411Z,6.79
2016-12-14T06:11:46.595Z,6.79
2016-12-14T06:17:34.879Z,6.79
2016-12-14T06:20:29.111Z,6.79
2016-12-14T06:23:23.375Z,6.79
2016-12-14T06:29:11.787Z,6.81
2016-12-14T06:37:54.926Z,6.79
2016-12-14T06:43:43.512Z,6.79
2016-12-14T06:46:37.821Z,6.79
2016-12-14T06:49:33.031Z,6.81
2016-12-14T06:52:26.245Z,6.82
2016-12-14T06:55:20.568Z,6.82
2016-12-14T06:58:14.788Z,6.81
2016-12-14T07:06:57.592Z,6.81
2016-12-14T07:09:51.956Z,6.81
2016-12-14T07:12:46.251Z,6.81
2016-12-14T07:18:35.359Z,6.80
2016-12-14T07:21:29.637Z,6.79
2016-12-14T07:27:18.393Z,6.80
2016-12-14T07:30:12.652Z,6.80
2016-12-14T07:33:06.698Z,6.80
2016-12-14T07:36:00.882Z,6.80
2016-12-14T07:38:55.060Z,6.79
2016-12-14T07:41:49.020Z,6.78
2016-12-14T07:47:37.320Z,6.76
2016-12-14T07:50:31.327Z,6.72
2016-12-14T07:56:19.666Z,6.68
2016-12-14T08:05:01.952Z,6.74
2016-12-14T08:10:49.988Z,6.80
2016-12-14T08:16:38.321Z,6.85
2016-12-14T08:19:32.579Z,6.86
2016-12-14T08:22:26.722Z,6.85
2016-12-14T08:25:20.769Z,6.83
2016-12-14T08:28:14.864Z,6.81
2016-12-14T08:31:09.026Z,6.80
2016-12-14T08:34:03.064Z,6.73
2016-12-14T08:36:57.170Z,6.72
2016-12-14T08:39:51.311Z,6.68
2016-12-14T08:42:45.390Z,6.64
2016-12-14T08:45:39.468Z,6.61
2016-12-14T08:51:27.724Z,6.61
2016-12-14T08:54:21.828Z,6.64
2016-12-14T09:00:10.100Z,6.68
2016-12-14T09:03:04.175Z,6.73
2016-12-14T09:05:58.227Z,6.76
2016-12-14T09:08:52.403Z,6.79
2016-12-14T09:11:46.371Z,6.81
2016-12-14T09:14:40.410Z,6.82
2016-12-14T09:17:34.572Z,6.82
2016-12-14T09:23:22.662Z,6.85
2016-12-14T09:29:10.894Z,6.95
2016-12-14T09:32:04.882Z,7.00
2016-12-14T09:37:52.937Z,7.03
2016-12-14T09:40:47.020Z,6.98
2016-12-14T09:43:41.150Z,6.98
2016-12-14T09:46:35.232Z,7.00
2016-12-14T09:49:29.283Z,7.00
2016-12-14T09:52:23.344Z,7.04
2016-12-14T09:55:17.526Z,7.11
2016-12-14T09:58:11.608Z,7.16
2016-12-14T10:01:05.738Z,7.18
2016-12-14T10:04:00.885Z,7.21
2016-12-14T10:06:54.010Z,7.22
2016-12-14T10:09:48.148Z,7.20
2016-12-14T10:12:42.282Z,7.22
2016-12-14T10:15:37.406Z,7.21
2016-12-14T10:18:30.532Z,7.17
2016-12-14T10:24:18.731Z,7.15
2016-12-14T10:27:12.788Z,7.10
2016-12-14T10:30:06.924Z,7.08
2016-12-14T10:35:55.143Z,7.05
2016-12-14T10:41:44.171Z,7.08
2016-12-14T10:47:31.271Z,7.07
2016-12-14T10:50:25.374Z,7.11
2016-12-14T10:53:19.530Z,7.12
2016-12-14T10:56:13.584Z,7.14
2016-12-14T11:02:01.821Z,7.13
2016-12-14T11:04:55.803Z,7.11
2016-12-14T11:07:49.720Z,7.10
2016-12-14T11:13:37.868Z,7.09
2016-12-14T11:19:25.885Z,7.10
2016-12-14T11:25:14.028Z,7.08
2016-12-14T11:31:02.578Z,7.04
2016-12-14T11:33:56.665Z,7.02
2016-12-14T11:39:44.854Z,6.98
2016-12-14T11:42:38.997Z,6.96
2016-12-14T11:45:32.948Z,6.92
2016-12-14T11:48:26.974Z,6.89
2016-12-14T11:54:15.100Z,6.82
2016-12-14T11:57:09.171Z,6.79
2016-12-14T12:00:03.215Z,6.81
2016-12-14T12:05:51.218Z,6.75
2016-12-14T12:11:39.340Z,6.75
2016-12-14T12:14:33.413Z,6.78
2016-12-14T12:17:27.438Z,6.80
2016-12-14T12:26:09.600Z,6.87
2016-12-14T12:29:03.583Z,6.89
2016-12-14T12:31:57.581Z,6.91
2016-12-14T12:34:51.682Z,6.90
2016-12-14T12:37:45.684Z,6.88
2016-12-14T12:40:39.731Z,6.86
2016-12-14T12:43:33.732Z,6.87
2016-12-14T12:46:27.932Z,6.86
2016-12-14T12:49:21.855Z,6.87
2016-12-14T12:52:16.015Z,6.87
2016-12-14T12:55:09.980Z,6.89
2016-12-14T13:00:58.021Z,6.90
2016-12-14T13:03:52.044Z,6.92
2016-12-14T13:06:46.045Z,6.91
2016-12-14T13:09:41.008Z,6.93
2016-12-14T13:12:34.110Z,6.93
2016-12-14T13:15:28.131Z,6.93
2016-12-14T13:18:22.209Z,6.94
2016-12-14T13:21:16.298Z,6.95
2016-12-14T13:24:10.397Z,6.96
2016-12-14T13:29:58.722Z,6.96
2016-12-14T13:38:40.995Z,6.90
2016-12-14T13:41:35.096Z,6.89
2016-12-14T13:44:28.974Z,6.87
2016-12-14T13:47:22.964Z,6.84
2016-12-14T13:50:17.006Z,6.83
2016-12-14T13:53:11.073Z,6.83
2016-12-14T13:56:05.172Z,6.84
2016-12-14T13:58:59.251Z,6.84
2016-12-14T14:07:41.337Z,6.82
2016-12-14T14:10:35.520Z,6.84
2016-12-14T14:16:23.975Z,6.82
2016-12-14T14:19:17.989Z,6.83
2016-12-14T14:28:00.252Z,6.81
2016-12-14T14:30:54.348Z,6.81
2016-12-14T14:36:42.396Z,6.72
2016-12-14T14:39:36.397Z,6.72
2016-12-14T14:42:30.248Z,6.68
2016-12-14T14:45:24.350Z,6.67
2016-12-14T14:51:12.566Z,6.59
2016-12-14T14:54:06.533Z,6.53
2016-12-14T15:02:48.555Z,6.47
2016-12-14T15:05:43.108Z,6.47
2016-12-14T15:08:37.109Z,6.44
2016-12-14T15:11:31.306Z,6.42
2016-12-14T15:14:25.302Z,6.40
2016-12-14T15:20:13.310Z,6.39
2016-12-14T15:23:07.339Z,6.37
2016-12-14T15:28:56.301Z,6.36
2016-12-14T15:31:50.412Z,6.36
2016-12-14T15:34:44.441Z,6.34
2016-12-14T15:37:38.448Z,6.30
2016-12-14T15:40:32.390Z,6.26
2016-12-14T15:46:20.277Z,6.14
2016-12-14T15:49:14.255Z,6.05
2016-12-14T15:52:08.269Z,5.96
2016-12-14T15:55:02.276Z,5.88
2016-12-14T15:57:56.275Z,5.83
2016-12-14T16:00:50.317Z,5.77
2016-12-14T16:03:44.277Z,5.72
2016-12-14T16:09:32.240Z,5.57
2016-12-14T16:15:21.231Z,5.49
2016-12-14T16:18:14.207Z,5.47
2016-12-14T16:24:03.082Z,5.35
2016-12-14T16:29:50.143Z,5.25
2016-12-14T16:32:44.173Z,5.22
2016-12-14T16:35:38.105Z,5.19
2016-12-14T16:38:32.183Z,5.15
2016-12-14T16:47:14.004Z,4.98
2016-12-14T16:50:07.780Z,4.93
2016-12-14T16:53:01.767Z,4.91
2016-12-14T16:55:56.671Z,4.89
2016-12-14T16:58:50.611Z,4.83
2016-12-14T17:01:43.577Z,4.79
2016-12-14T17:10:25.237Z,4.59
2016-12-14T17:13:19.128Z,4.49
2016-12-14T17:16:13.055Z,4.46
2016-12-14T17:22:00.981Z,4.33
2016-12-14T17:24:54.925Z,4.23
2016-12-14T17:30:42.816Z,4.16
2016-12-14T17:36:30.566Z,4.11
2016-12-14T17:39:24.417Z,4.09
2016-12-14T17:42:18.393Z,4.07
2016-12-14T17:45:12.266Z,4.00
2016-12-14T17:48:06.062Z,3.96
2016-12-14T17:50:59.952Z,3.93
2016-12-14T17:53:53.878Z,3.92
2016-12-14T17:56:47.825Z,3.86
2016-12-14T17:59:41.561Z,3.85
2016-12-14T18:08:23.167Z,3.86
2016-12-14T18:11:17.082Z,3.79
2016-12-14T18:14:10.900Z,3.75
2016-12-14T18:19:58.759Z,3.64
2016-12-14T18:28:40.244Z,3.59
2016-12-14T18:34:27.988Z,3.61
2016-12-14T18:37:21.824Z,3.59
2016-12-14T18:40:15.662Z,3.60
2016-12-14T18:43:10.542Z,3.57
2016-12-14T18:48:57.102Z,3.47
2016-12-14T18:51:50.946Z,3.45
2016-12-14T18:54:45.113Z,3.46
2016-12-14T19:00:32.782Z,3.40
2016-12-14T19:03:26.594Z,3.39
2016-12-14T19:06:20.453Z,3.33
2016-12-14T19:12:08.071Z,3.32
2016-12-14T19:15:01.845Z,3.33
2016-12-14T19:17:56.777Z,3.35
2016-12-14T19:23:43.399Z,3.41
2016-12-14T19:26:37.089Z,3.42
2016-12-14T19:29:31.512Z,3.44
2016-12-14T19:32:25.335Z,3.46
2016-12-14T19:35:19.232Z,3.50
2016-12-14T19:41:06.949Z,3.59
2016-12-14T19:49:48.528Z,3.69
2016-12-14T19:52:42.476Z,3.73
2016-12-14T19:55:36.389Z,3.79
2016-12-14T19:58:30.307Z,3.80
2016-12-14T20:01:24.153Z,3.80
2016-12-14T20:07:11.897Z,3.84
2016-12-14T20:10:05.737Z,3.87
2016-12-14T20:21:41.682Z,3.95
2016-12-14T20:24:35.593Z,3.93
2016-12-14T20:27:29.438Z,3.91
2016-12-14T20:30:23.203Z,3.89
2016-12-14T20:36:11.002Z,3.89
2016-12-14T20:39:04.872Z,3.92
2016-12-14T20:44:52.640Z,3.96
2016-12-14T20:53:34.730Z,4.01
2016-12-14T20:56:28.562Z,4.02
2016-12-14T20:59:23.518Z,4.04
2016-12-14T21:02:17.409Z,4.05
2016-12-14T21:05:10.348Z,4.06
2016-12-14T21:08:04.179Z,4.04
2016-12-14T21:13:52.017Z,4.04
2016-12-14T21:16:45.949Z,4.03
2016-12-14T21:22:33.821Z,4.07
2016-12-14T21:25:28.632Z,4.07
2016-12-14T21:31:15.984Z,4.10
2016-12-14T21:39:57.625Z,4.18
2016-12-14T21:42:51.591Z,4.20
2016-12-14T21:45:46.504Z,4.21
2016-12-14T21:51:33.299Z,4.24
2016-12-14T21:54:27.187Z,4.24
2016-12-14T22:00:14.946Z,4.19
2016-12-14T22:03:09.962Z,4.19
2016-12-14T22:06:02.763Z,4.19
2016-12-14T22:08:56.618Z,4.20
2016-12-14T22:14:44.377Z,4.19
2016-12-14T22:17:38.242Z,4.17
2016-12-14T22:20:32.124Z,4.10
2016-12-14T22:26:19.770Z,4.05
2016-12-14T22:29:13.618Z,4.06
2016-12-14T22:32:07.567Z,4.06
2016-12-14T22:37:55.098Z,4.11
2016-12-14T22:40:48.973Z,4.15
2016-12-14T22:43:42.836Z,4.14
2016-12-14T22:49:30.640Z,4.14
2016-12-14T22:52:25.572Z,4.18
2016-12-14T22:55:18.459Z,4.19
2016-12-14T22:58:12.233Z,4.18
2016-12-14T23:01:06.108Z,4.13
2016-12-14T23:06:53.919Z,4.09
2016-12-14T23:09:47.597Z,4.08
2016-12-14T23:15:35.800Z,4.13
2016-12-14T23:18:29.682Z,4.11
2016-12-14T23:24:17.489Z,4.10
2016-12-14T23:27:11.288Z,4.07
2016-12-14T23:30:06.231Z,4.05
2016-12-14T23:33:00.070Z,3.96
2016-12-14T23:35:52.969Z,3.96
2016-12-14T23:41:41.604Z,3.86
2016-12-14T23:50:22.109Z,3.65
2016-12-14T23:53:16.823Z,3.53
